Block Island, Rhode Island
Current Conditions -  °F | °C
As of 1:35 PM on Monday 22 Dec 2014 (Local Time) from KBID Reporting Station
Overcast Overcast  
Wind Chill: 39°   Ceiling: 1000
Heat Index: 45°   Visibility: 10mi
Dew Point: 37°   Wind: 10mph
Humidity: 76%   Direction: 70°ENE
Pressure: 30.28"   Gusts: NA
Location:  41.17°N, 71.58°W
Report Text: KBID 221835Z AUTO 07009KT 10SM BKN010 OVC047 07/03 A3028 RMK AO1
Loading
Personal Weather Stations






























Interactive Weather Map New forecast layout! Learn more

10-Day Weather Forecast

Advertisements
Track Severe Weather on mobile